createdAt,value
2017-08-24T00:00:17.943Z,0.00
2017-08-24T00:01:17.938Z,0.00
2017-08-24T00:02:17.937Z,0.00
2017-08-24T00:03:17.931Z,0.00
2017-08-24T00:04:17.930Z,0.00
2017-08-24T00:05:17.925Z,0.00
2017-08-24T00:06:17.924Z,0.00
2017-08-24T00:07:17.918Z,0.00
2017-08-24T00:08:17.922Z,0.00
2017-08-24T00:09:17.919Z,0.00
2017-08-24T00:10:17.912Z,0.00
2017-08-24T00:11:17.912Z,0.00
2017-08-24T00:12:17.908Z,0.00
2017-08-24T00:13:17.902Z,0.00
2017-08-24T00:14:17.902Z,0.00
2017-08-24T00:15:17.898Z,0.00
2017-08-24T00:16:17.889Z,0.00
2017-08-24T00:17:17.887Z,0.00
2017-08-24T00:18:17.883Z,0.00
2017-08-24T00:19:17.882Z,0.00
2017-08-24T00:20:17.875Z,0.00
2017-08-24T00:21:17.876Z,0.00
2017-08-24T00:22:17.870Z,0.00
2017-08-24T00:23:17.868Z,0.00
2017-08-24T00:24:17.869Z,0.00
2017-08-24T00:25:17.864Z,0.00
2017-08-24T00:26:17.862Z,0.00
2017-08-24T00:27:17.858Z,0.00
2017-08-24T00:28:17.849Z,0.00
2017-08-24T00:29:17.848Z,0.00
2017-08-24T00:30:17.842Z,0.00
2017-08-24T00:31:17.842Z,0.00
2017-08-24T00:32:17.843Z,0.00
2017-08-24T00:33:17.837Z,0.00
2017-08-24T00:34:17.836Z,0.00
2017-08-24T00:35:17.832Z,0.00
2017-08-24T00:36:17.829Z,0.00
2017-08-24T00:37:17.824Z,0.00
2017-08-24T00:38:17.824Z,0.00
2017-08-24T00:39:17.819Z,0.00
2017-08-24T00:40:17.811Z,0.00
2017-08-24T00:41:17.810Z,0.00
2017-08-24T00:42:17.805Z,0.00
2017-08-24T00:43:17.804Z,0.00
2017-08-24T00:44:17.801Z,0.00
2017-08-24T00:45:17.797Z,0.00
2017-08-24T00:46:17.793Z,0.00
2017-08-24T00:47:17.789Z,0.00
2017-08-24T00:48:17.789Z,0.00
2017-08-24T00:49:17.789Z,0.00
2017-08-24T00:50:17.784Z,0.00
2017-08-24T00:51:17.781Z,0.00
2017-08-24T00:52:17.778Z,0.00
2017-08-24T00:53:17.777Z,0.00
2017-08-24T00:54:17.771Z,0.00
2017-08-24T00:55:17.770Z,0.00
2017-08-24T00:56:17.768Z,0.00
2017-08-24T00:57:17.758Z,0.00
2017-08-24T00:58:17.755Z,0.00
2017-08-24T00:59:17.753Z,0.00
2017-08-24T01:00:17.748Z,0.00
2017-08-24T01:01:17.748Z,0.00
2017-08-24T01:02:17.742Z,0.00
2017-08-24T01:03:17.740Z,0.00
2017-08-24T01:04:17.743Z,0.00
2017-08-24T01:05:17.737Z,0.00
2017-08-24T01:06:17.736Z,0.00
2017-08-24T01:07:17.731Z,0.00
2017-08-24T01:08:17.728Z,0.00
2017-08-24T01:09:17.725Z,0.00
2017-08-24T01:10:17.723Z,0.00
2017-08-24T01:11:17.719Z,0.00
2017-08-24T01:12:17.710Z,0.00
2017-08-24T01:13:17.710Z,0.00
2017-08-24T01:14:17.704Z,0.00
2017-08-24T01:15:17.705Z,0.00
2017-08-24T01:16:17.700Z,0.00
2017-08-24T01:17:17.695Z,0.00
2017-08-24T01:18:17.695Z,0.00
2017-08-24T01:19:17.690Z,0.00
2017-08-24T01:20:17.690Z,0.00
2017-08-24T01:21:17.693Z,0.00
2017-08-24T01:22:17.683Z,0.00
2017-08-24T01:23:17.683Z,0.00
2017-08-24T01:24:17.678Z,0.00
2017-08-24T01:25:17.676Z,0.00
2017-08-24T01:26:17.672Z,0.00
2017-08-24T01:27:17.670Z,0.00
2017-08-24T01:28:17.662Z,0.00
2017-08-24T01:29:17.658Z,0.00
2017-08-24T01:30:17.656Z,0.00
2017-08-24T01:31:17.652Z,0.00
2017-08-24T01:32:17.652Z,0.00
2017-08-24T01:33:17.650Z,0.00
2017-08-24T01:34:17.646Z,0.00
2017-08-24T01:35:17.645Z,0.00
2017-08-24T01:36:17.637Z,0.00
2017-08-24T01:37:17.633Z,0.00
2017-08-24T01:38:17.632Z,0.00
2017-08-24T01:39:17.627Z,0.00
2017-08-24T01:40:17.625Z,0.00
2017-08-24T01:41:17.619Z,0.00
2017-08-24T01:42:17.618Z,0.00
2017-08-24T01:43:17.612Z,0.00
2017-08-24T01:44:17.613Z,0.00
2017-08-24T01:45:17.612Z,0.00
2017-08-24T01:46:17.609Z,0.00
2017-08-24T01:47:17.606Z,0.00
2017-08-24T01:48:17.600Z,0.00
2017-08-24T01:49:17.598Z,0.00
2017-08-24T01:50:17.596Z,0.00
2017-08-24T01:51:17.592Z,0.00
2017-08-24T01:52:17.584Z,0.00
2017-08-24T01:53:17.582Z,0.00
2017-08-24T01:54:17.578Z,0.00
2017-08-24T01:55:17.577Z,0.00
2017-08-24T01:56:17.571Z,0.00
2017-08-24T01:57:17.569Z,0.00
2017-08-24T01:58:17.564Z,0.00
2017-08-24T01:59:17.563Z,0.00
2017-08-24T02:00:17.563Z,0.00
2017-08-24T02:01:17.558Z,0.00
2017-08-24T02:02:17.557Z,0.00
2017-08-24T02:03:17.553Z,0.00
2017-08-24T02:04:17.550Z,0.00
2017-08-24T02:05:17.546Z,0.00
2017-08-24T02:06:17.543Z,0.00
2017-08-24T02:07:17.541Z,0.00
2017-08-24T02:08:17.531Z,0.00
2017-08-24T02:09:17.525Z,0.00
2017-08-24T02:10:17.525Z,0.00
2017-08-24T02:11:17.521Z,0.00
2017-08-24T02:12:17.519Z,0.00
2017-08-24T02:13:17.512Z,0.00
2017-08-24T02:14:17.512Z,0.00
2017-08-24T02:15:17.506Z,0.00
2017-08-24T02:16:17.507Z,0.00
2017-08-24T02:17:17.509Z,0.00
2017-08-24T02:18:17.500Z,0.00
2017-08-24T02:19:17.501Z,0.00
2017-08-24T02:20:17.494Z,0.00
2017-08-24T02:21:17.490Z,0.00
2017-08-24T02:22:17.487Z,0.00
2017-08-24T02:23:17.482Z,0.00
2017-08-24T02:24:17.474Z,0.00
2017-08-24T02:25:17.473Z,0.00
2017-08-24T02:26:17.467Z,0.00
2017-08-24T02:27:17.467Z,0.00
2017-08-24T02:28:17.460Z,0.00
2017-08-24T02:29:17.458Z,0.00
2017-08-24T02:30:17.453Z,0.00
2017-08-24T02:31:17.453Z,0.00
2017-08-24T02:32:17.452Z,0.00
2017-08-24T02:33:17.447Z,0.00
2017-08-24T02:34:17.443Z,0.00
2017-08-24T02:35:17.438Z,0.00
2017-08-24T02:36:17.436Z,0.00
2017-08-24T02:37:17.427Z,0.00
2017-08-24T02:38:17.424Z,0.00
2017-08-24T02:39:17.419Z,0.00
2017-08-24T02:40:17.420Z,0.00
2017-08-24T02:41:17.418Z,0.00
2017-08-24T02:42:17.412Z,0.00
2017-08-24T02:43:17.410Z,0.00
2017-08-24T02:44:17.403Z,0.00
2017-08-24T02:45:17.401Z,0.00
2017-08-24T02:46:17.395Z,0.00
2017-08-24T02:47:17.394Z,0.00
2017-08-24T02:48:17.385Z,0.00
2017-08-24T02:49:17.383Z,0.00
2017-08-24T02:50:17.377Z,0.00
2017-08-24T02:51:17.373Z,0.00
2017-08-24T02:52:17.366Z,0.00
2017-08-24T02:53:17.364Z,0.00
2017-08-24T02:54:17.366Z,0.00
2017-08-24T02:55:17.356Z,0.00
2017-08-24T02:56:17.354Z,0.00
2017-08-24T02:57:17.349Z,0.00
2017-08-24T02:58:17.348Z,0.00
2017-08-24T02:59:17.342Z,0.00
2017-08-24T03:00:17.337Z,0.00
2017-08-24T03:01:17.332Z,0.00
2017-08-24T03:02:17.330Z,0.00
2017-08-24T03:03:17.323Z,0.00
2017-08-24T03:04:17.314Z,0.00
2017-08-24T03:05:17.313Z,0.00
2017-08-24T03:06:17.306Z,0.00
2017-08-24T03:07:17.306Z,0.00
2017-08-24T03:08:17.299Z,0.00
2017-08-24T03:09:17.293Z,0.00
2017-08-24T03:10:17.291Z,0.00
2017-08-24T03:11:17.285Z,0.00
2017-08-24T03:12:17.289Z,0.00
2017-08-24T03:13:17.282Z,0.00
2017-08-24T03:14:17.276Z,0.00
2017-08-24T03:15:17.273Z,0.00
2017-08-24T03:16:17.267Z,0.00
2017-08-24T03:17:17.266Z,0.00
2017-08-24T03:18:17.259Z,0.00
2017-08-24T03:19:17.255Z,0.00
2017-08-24T03:20:17.248Z,0.00
2017-08-24T03:21:17.241Z,0.00
2017-08-24T03:22:17.241Z,0.00
2017-08-24T03:23:17.235Z,0.00
2017-08-24T03:24:17.233Z,0.00
2017-08-24T03:25:17.225Z,0.00
2017-08-24T03:26:17.221Z,0.00
2017-08-24T03:27:17.218Z,0.00
2017-08-24T03:28:17.217Z,0.00
2017-08-24T03:29:17.211Z,0.00
2017-08-24T03:30:17.212Z,0.00
2017-08-24T03:31:17.202Z,0.00
2017-08-24T03:32:17.201Z,0.00
2017-08-24T03:33:17.194Z,0.00
2017-08-24T03:34:17.191Z,0.00
2017-08-24T03:35:17.185Z,0.00
2017-08-24T03:36:17.175Z,0.00
2017-08-24T03:37:17.174Z,0.00
2017-08-24T03:38:17.167Z,0.00
2017-08-24T03:39:17.164Z,0.00
2017-08-24T03:40:17.164Z,0.00
2017-08-24T03:41:17.159Z,0.00
2017-08-24T03:42:17.156Z,0.00
2017-08-24T03:43:17.148Z,0.00
2017-08-24T03:44:17.140Z,0.00
2017-08-24T03:45:17.138Z,0.00
2017-08-24T03:46:17.131Z,0.00
2017-08-24T03:47:17.131Z,0.00
2017-08-24T03:48:17.122Z,0.00
2017-08-24T03:49:17.119Z,0.00
2017-08-24T03:50:17.114Z,0.00
2017-08-24T03:51:17.110Z,0.00
2017-08-24T03:52:17.110Z,0.00
2017-08-24T03:53:17.103Z,0.00
2017-08-24T03:54:17.100Z,0.00
2017-08-24T03:55:17.095Z,0.00
2017-08-24T03:56:17.090Z,0.00
2017-08-24T03:57:17.087Z,0.00
2017-08-24T03:58:17.081Z,0.00
2017-08-24T03:59:17.079Z,0.00
2017-08-24T04:00:17.070Z,0.00
2017-08-24T04:01:17.063Z,0.00
2017-08-24T04:02:17.060Z,0.00
2017-08-24T04:03:17.055Z,0.00
2017-08-24T04:04:17.050Z,0.00
2017-08-24T04:05:17.045Z,0.00
2017-08-24T04:06:17.042Z,0.00
2017-08-24T04:07:17.037Z,0.00
2017-08-24T04:08:17.036Z,0.00
2017-08-24T04:09:17.033Z,0.00
2017-08-24T04:10:17.026Z,0.00
2017-08-24T04:11:17.024Z,0.00
2017-08-24T04:12:17.018Z,0.00
2017-08-24T04:13:17.013Z,0.00
2017-08-24T04:14:17.010Z,0.00
2017-08-24T04:15:17.004Z,0.00
2017-08-24T04:16:16.994Z,0.00
2017-08-24T04:17:16.991Z,0.00
2017-08-24T04:18:16.984Z,0.00
2017-08-24T04:19:16.981Z,0.00
2017-08-24T04:20:16.975Z,0.00
2017-08-24T04:21:16.977Z,0.00
2017-08-24T04:22:16.968Z,0.00
2017-08-24T04:23:16.964Z,0.00
2017-08-24T04:24:16.962Z,0.00
2017-08-24T04:25:16.957Z,0.00
2017-08-24T04:26:16.953Z,0.00
2017-08-24T04:27:16.947Z,5.63
2017-08-24T04:28:16.939Z,5.63
2017-08-24T04:29:16.942Z,5.63
2017-08-24T04:30:16.931Z,5.63
2017-08-24T04:31:16.928Z,5.63
2017-08-24T04:32:16.919Z,5.63
2017-08-24T04:33:16.913Z,5.63
2017-08-24T04:34:16.912Z,5.63
2017-08-24T04:35:16.902Z,5.63
2017-08-24T04:36:16.898Z,5.63
2017-08-24T04:37:16.895Z,5.63
2017-08-24T04:38:16.890Z,11.25
2017-08-24T04:39:16.882Z,11.25
2017-08-24T04:40:16.881Z,11.25
2017-08-24T04:41:16.877Z,16.88
2017-08-24T04:42:16.872Z,16.88
2017-08-24T04:43:16.868Z,16.88
2017-08-24T04:44:16.859Z,16.88
2017-08-24T04:45:16.852Z,22.50
2017-08-24T04:46:16.848Z,22.50
2017-08-24T04:47:16.843Z,22.50
2017-08-24T04:48:16.840Z,22.50
2017-08-24T04:49:16.842Z,22.50
2017-08-24T04:50:16.832Z,28.13
2017-08-24T04:51:16.829Z,28.13
2017-08-24T04:52:16.820Z,28.13
2017-08-24T04:53:16.817Z,28.13
2017-08-24T04:54:16.811Z,28.13
2017-08-24T04:55:16.807Z,33.75
2017-08-24T04:56:16.798Z,33.75
2017-08-24T04:57:16.792Z,39.38
2017-08-24T04:58:16.791Z,45.00
2017-08-24T04:59:16.783Z,50.63
2017-08-24T05:00:16.777Z,56.25
2017-08-24T05:01:16.778Z,61.88
2017-08-24T05:02:16.767Z,67.50
2017-08-24T05:03:16.764Z,67.50
2017-08-24T05:04:16.764Z,67.50
2017-08-24T05:05:16.756Z,73.13
2017-08-24T05:06:16.758Z,78.75
2017-08-24T05:07:16.748Z,78.75
2017-08-24T05:08:16.744Z,73.13
2017-08-24T05:09:16.738Z,67.50
2017-08-24T05:10:16.735Z,56.25
2017-08-24T05:11:16.728Z,50.63
2017-08-24T05:12:16.719Z,56.25
2017-08-24T05:13:16.716Z,56.25
2017-08-24T05:14:16.709Z,67.50
2017-08-24T05:15:16.706Z,73.13
2017-08-24T05:16:16.701Z,78.75
2017-08-24T05:17:16.695Z,84.38
2017-08-24T05:18:16.692Z,90.00
2017-08-24T05:19:16.686Z,90.00
2017-08-24T05:20:16.689Z,95.63
2017-08-24T05:21:16.682Z,101.25
2017-08-24T05:22:16.675Z,95.63
2017-08-24T05:23:16.671Z,95.63
2017-08-24T05:24:16.667Z,101.25
2017-08-24T05:25:16.661Z,101.25
2017-08-24T05:26:16.654Z,101.25
2017-08-24T05:27:16.653Z,95.63
2017-08-24T05:28:16.642Z,95.63
2017-08-24T05:29:16.636Z,101.25
2017-08-24T05:30:16.634Z,106.88
2017-08-24T05:31:16.627Z,106.88
2017-08-24T05:32:16.621Z,106.88
2017-08-24T05:33:16.618Z,112.50
2017-08-24T05:34:16.613Z,129.38
2017-08-24T05:35:16.610Z,135.00
2017-08-24T05:36:16.609Z,140.63
2017-08-24T05:37:16.602Z,146.25
2017-08-24T05:38:16.601Z,146.25
2017-08-24T05:39:16.594Z,151.88
2017-08-24T05:40:16.590Z,163.13
2017-08-24T05:41:16.583Z,174.38
2017-08-24T05:42:16.581Z,185.63
2017-08-24T05:43:16.575Z,191.25
2017-08-24T05:44:16.564Z,196.88
2017-08-24T05:45:16.565Z,208.13
2017-08-24T05:46:16.557Z,213.75
2017-08-24T05:47:16.554Z,213.75
2017-08-24T05:48:16.554Z,208.13
2017-08-24T05:49:16.547Z,196.88
2017-08-24T05:50:16.544Z,185.63
2017-08-24T05:51:16.539Z,202.50
2017-08-24T05:52:16.528Z,236.25
2017-08-24T05:53:16.526Z,270.00
2017-08-24T05:54:16.520Z,286.88
2017-08-24T05:55:16.519Z,292.50
2017-08-24T05:56:16.512Z,281.25
2017-08-24T05:57:16.509Z,270.00
2017-08-24T05:58:16.503Z,270.00
2017-08-24T05:59:16.502Z,264.38
2017-08-24T06:00:16.501Z,247.50
2017-08-24T06:01:16.495Z,236.25
2017-08-24T06:02:16.493Z,230.63
2017-08-24T06:03:16.487Z,225.00
2017-08-24T06:04:16.482Z,208.13
2017-08-24T06:05:16.481Z,191.25
2017-08-24T06:06:16.475Z,185.63
2017-08-24T06:07:16.477Z,191.25
2017-08-24T06:08:16.463Z,196.88
2017-08-24T06:09:16.458Z,208.13
2017-08-24T06:10:16.457Z,219.38
2017-08-24T06:11:16.451Z,230.63
2017-08-24T06:12:16.448Z,225.00
2017-08-24T06:13:16.441Z,236.25
2017-08-24T06:14:16.441Z,241.88
2017-08-24T06:15:16.435Z,247.50
2017-08-24T06:16:16.433Z,219.38
2017-08-24T06:17:16.432Z,230.63
2017-08-24T06:18:16.427Z,258.75
2017-08-24T06:19:16.425Z,275.63
2017-08-24T06:20:16.419Z,281.25
2017-08-24T06:21:16.413Z,286.88
2017-08-24T06:22:16.412Z,298.13
2017-08-24T06:23:16.442Z,315.00
2017-08-24T06:24:16.396Z,331.88
2017-08-24T06:25:16.395Z,348.75
2017-08-24T06:26:16.389Z,376.88
2017-08-24T06:27:16.389Z,399.38
2017-08-24T06:28:16.381Z,416.25
2017-08-24T06:29:16.380Z,399.38
2017-08-24T06:30:16.374Z,416.25
2017-08-24T06:31:16.373Z,421.88
2017-08-24T06:32:16.372Z,433.13
2017-08-24T06:33:16.366Z,444.38
2017-08-24T06:34:16.365Z,461.25
2017-08-24T06:35:16.360Z,489.38
2017-08-24T06:36:16.354Z,534.38
2017-08-24T06:37:16.353Z,568.13
2017-08-24T06:38:16.347Z,545.63
2017-08-24T06:39:16.346Z,680.63
2017-08-24T06:40:16.344Z,590.63
2017-08-24T06:41:16.331Z,545.63
2017-08-24T06:42:16.332Z,540.00
2017-08-24T06:43:16.326Z,427.50
2017-08-24T06:44:16.325Z,416.25
2017-08-24T06:45:16.321Z,410.63
2017-08-24T06:46:16.325Z,376.88
2017-08-24T06:47:16.314Z,348.75
2017-08-24T06:48:16.315Z,388.13
2017-08-24T06:49:16.316Z,410.63
2017-08-24T06:50:16.311Z,433.13
2017-08-24T06:51:16.311Z,444.38
2017-08-24T06:52:16.306Z,405.00
2017-08-24T06:53:16.306Z,393.75
2017-08-24T06:54:16.301Z,405.00
2017-08-24T06:55:16.301Z,405.00
2017-08-24T06:56:16.294Z,371.25
2017-08-24T06:57:16.289Z,365.63
2017-08-24T06:58:16.289Z,393.75
2017-08-24T06:59:16.284Z,450.00
2017-08-24T07:00:16.285Z,416.25
2017-08-24T07:01:16.288Z,433.13
2017-08-24T07:02:16.279Z,382.50
2017-08-24T07:03:16.277Z,410.63
2017-08-24T07:04:16.281Z,337.50
2017-08-24T07:05:16.278Z,298.13
2017-08-24T07:06:16.276Z,376.88
2017-08-24T07:07:16.274Z,444.38
2017-08-24T07:08:16.270Z,444.38
2017-08-24T07:09:16.266Z,416.25
2017-08-24T07:10:16.266Z,444.38
2017-08-24T07:11:16.262Z,455.63
2017-08-24T07:12:16.255Z,427.50
2017-08-24T07:13:16.255Z,416.25
2017-08-24T07:14:16.251Z,365.63
2017-08-24T07:15:16.250Z,405.00
2017-08-24T07:16:16.245Z,450.00
2017-08-24T07:17:16.246Z,495.00
2017-08-24T07:18:16.242Z,472.50
2017-08-24T07:19:16.242Z,461.25
2017-08-24T07:20:16.242Z,495.00
2017-08-24T07:21:16.238Z,534.38
2017-08-24T07:22:16.239Z,562.50
2017-08-24T07:23:16.234Z,444.38
2017-08-24T07:25:16.251Z,427.50
2017-08-24T07:26:16.230Z,495.00
2017-08-24T07:27:16.225Z,506.25
2017-08-24T07:28:16.224Z,489.38
2017-08-24T07:29:16.218Z,461.25
2017-08-24T07:30:16.217Z,556.88
2017-08-24T07:31:16.215Z,635.63
2017-08-24T07:32:16.211Z,556.88
2017-08-24T07:33:16.211Z,466.88
2017-08-24T07:34:16.206Z,466.88
2017-08-24T07:35:16.207Z,517.50
2017-08-24T07:36:16.203Z,646.88
2017-08-24T07:37:16.205Z,759.38
2017-08-24T07:38:16.205Z,765.00
2017-08-24T07:39:16.202Z,708.75
2017-08-24T07:40:16.201Z,585.00
2017-08-24T07:41:16.200Z,416.25
2017-08-24T07:42:16.197Z,444.38
2017-08-24T07:43:16.210Z,455.63
2017-08-24T07:44:16.195Z,511.88
2017-08-24T07:45:16.188Z,495.00
2017-08-24T07:46:16.189Z,444.38
2017-08-24T07:47:16.311Z,416.25
2017-08-24T07:48:16.339Z,382.50
2017-08-24T07:49:16.289Z,393.75
2017-08-24T07:50:16.181Z,360.00
2017-08-24T07:51:16.178Z,309.38
2017-08-24T07:52:16.178Z,303.75
2017-08-24T07:53:16.181Z,343.13
2017-08-24T07:54:16.177Z,393.75
2017-08-24T07:55:16.179Z,365.63
2017-08-24T07:56:16.174Z,354.38
2017-08-24T07:57:16.168Z,343.13
2017-08-24T07:58:16.171Z,427.50
2017-08-24T07:59:16.165Z,568.13
2017-08-24T08:00:16.165Z,495.00
2017-08-24T08:01:16.167Z,545.63
2017-08-24T08:02:16.164Z,534.38
2017-08-24T08:03:16.170Z,585.00
2017-08-24T08:04:16.160Z,804.38
2017-08-24T08:05:16.160Z,1051.88
2017-08-24T08:06:16.156Z,922.50
2017-08-24T08:07:16.157Z,1501.88
2017-08-24T08:08:16.159Z,579.38
2017-08-24T08:09:16.147Z,416.25
2017-08-24T08:10:16.148Z,596.25
2017-08-24T08:11:16.146Z,1040.63
2017-08-24T08:12:16.146Z,1918.13
2017-08-24T08:13:16.145Z,1018.13
2017-08-24T08:14:16.142Z,832.50
2017-08-24T08:15:16.142Z,826.88
2017-08-24T08:16:16.143Z,787.50
2017-08-24T08:17:16.144Z,1687.50
2017-08-24T08:18:16.145Z,961.88
2017-08-24T08:19:16.143Z,1040.63
2017-08-24T08:20:16.143Z,978.75
2017-08-24T08:22:16.143Z,978.75
2017-08-24T08:23:16.144Z,826.88
2017-08-24T08:24:16.140Z,776.25
2017-08-24T08:25:16.144Z,776.25
2017-08-24T08:26:16.143Z,573.75
2017-08-24T08:28:16.138Z,534.38
2017-08-24T08:29:16.141Z,646.88
2017-08-24T08:30:16.139Z,765.00
2017-08-24T08:32:16.141Z,793.13
2017-08-24T08:33:16.143Z,742.50
2017-08-24T08:34:16.141Z,658.13
2017-08-24T08:35:16.149Z,630.00
2017-08-24T08:36:16.149Z,506.25
2017-08-24T08:37:16.148Z,500.63
2017-08-24T08:38:16.150Z,416.25
2017-08-24T08:39:16.147Z,354.38
2017-08-24T08:40:16.150Z,371.25
2017-08-24T08:41:16.148Z,461.25
2017-08-24T08:42:16.151Z,551.25
2017-08-24T08:43:16.152Z,568.13
2017-08-24T08:44:16.145Z,466.88
2017-08-24T08:45:16.148Z,410.63
2017-08-24T08:46:16.146Z,433.13
2017-08-24T08:47:16.148Z,461.25
2017-08-24T08:48:16.148Z,421.88
2017-08-24T08:49:16.145Z,376.88
2017-08-24T08:50:16.151Z,360.00
2017-08-24T08:52:16.146Z,630.00
2017-08-24T08:53:16.150Z,635.63
2017-08-24T08:54:16.151Z,562.50
2017-08-24T08:55:16.149Z,630.00
2017-08-24T08:56:16.150Z,635.63
2017-08-24T08:57:16.147Z,669.38
2017-08-24T08:58:16.149Z,562.50
2017-08-24T08:59:16.147Z,579.38
2017-08-24T09:00:16.148Z,641.25
2017-08-24T09:01:16.142Z,804.38
2017-08-24T09:02:16.141Z,888.75
2017-08-24T09:03:16.149Z,973.13
2017-08-24T09:04:16.139Z,911.25
2017-08-24T09:05:16.143Z,765.00
2017-08-24T09:06:16.144Z,630.00
2017-08-24T09:07:16.143Z,697.50
2017-08-24T09:08:16.146Z,433.13
2017-08-24T09:09:16.138Z,354.38
2017-08-24T09:10:16.136Z,478.13
2017-08-24T09:11:16.139Z,562.50
2017-08-24T09:12:16.134Z,444.38
2017-08-24T09:13:16.137Z,472.50
2017-08-24T09:14:16.135Z,1226.25
2017-08-24T09:15:16.138Z,1423.13
2017-08-24T09:16:16.134Z,714.38
2017-08-24T09:17:16.138Z,618.75
2017-08-24T09:18:16.140Z,573.75
2017-08-24T09:19:16.138Z,551.25
2017-08-24T09:20:16.142Z,624.38
2017-08-24T09:21:16.141Z,883.13
2017-08-24T09:22:16.138Z,1462.50
2017-08-24T09:23:16.140Z,1186.88
2017-08-24T09:24:16.137Z,1170.00
2017-08-24T09:25:16.131Z,2210.63
2017-08-24T09:26:16.135Z,4443.75
2017-08-24T09:27:16.134Z,1507.50
2017-08-24T09:28:16.136Z,2300.63
2017-08-24T09:29:16.134Z,1203.75
2017-08-24T09:30:16.138Z,849.38
2017-08-24T09:31:16.137Z,832.50
2017-08-24T09:32:16.140Z,1023.75
2017-08-24T09:33:16.149Z,978.75
2017-08-24T09:34:16.147Z,1243.13
2017-08-24T09:35:16.150Z,3645.00
2017-08-24T09:36:16.149Z,1091.25
2017-08-24T09:37:16.151Z,1333.13
2017-08-24T09:38:16.156Z,3448.13
2017-08-24T09:39:16.158Z,1080.00
2017-08-24T09:40:16.161Z,1153.13
2017-08-24T09:41:16.166Z,1136.25
2017-08-24T09:42:16.166Z,1254.38
2017-08-24T09:43:16.167Z,2677.50
2017-08-24T09:44:16.171Z,1333.13
2017-08-24T09:45:16.173Z,1063.13
2017-08-24T09:46:16.175Z,961.88
2017-08-24T09:47:16.180Z,770.63
2017-08-24T09:48:16.182Z,748.13
2017-08-24T09:49:16.190Z,950.63
2017-08-24T09:50:16.195Z,4078.13
2017-08-24T09:51:16.198Z,4173.75
2017-08-24T09:52:16.203Z,1096.88
2017-08-24T09:53:16.206Z,2047.50
2017-08-24T09:54:16.208Z,916.88
2017-08-24T09:55:16.215Z,731.25
2017-08-24T09:56:16.217Z,888.75
2017-08-24T09:57:16.218Z,2638.13
2017-08-24T09:58:16.250Z,1141.88
2017-08-24T09:59:16.229Z,3853.13
2017-08-24T10:00:16.234Z,3886.88
2017-08-24T10:01:16.238Z,3712.50
2017-08-24T10:02:16.246Z,1158.75
2017-08-24T10:03:16.249Z,1260.00
2017-08-24T10:04:16.256Z,3273.75
2017-08-24T10:05:16.266Z,3178.13
2017-08-24T10:06:16.272Z,2761.88
2017-08-24T10:07:16.281Z,3195.00
2017-08-24T10:08:16.283Z,1344.38
2017-08-24T10:09:16.290Z,2925.00
2017-08-24T10:10:16.297Z,2941.88
2017-08-24T10:11:16.303Z,2846.25
2017-08-24T10:12:16.311Z,2823.75
2017-08-24T10:13:16.325Z,2773.13
2017-08-24T10:14:16.332Z,2874.38
2017-08-24T10:15:16.344Z,2936.25
2017-08-24T10:16:16.350Z,2885.63
2017-08-24T10:17:16.362Z,2542.50
2017-08-24T10:18:16.371Z,2716.88
2017-08-24T10:19:16.385Z,2728.13
2017-08-24T10:20:16.393Z,2565.00
2017-08-24T10:21:16.401Z,1125.00
2017-08-24T10:22:16.415Z,2520.00
2017-08-24T10:23:16.424Z,1636.88
2017-08-24T10:24:16.437Z,2705.63
2017-08-24T10:25:16.452Z,2919.38
2017-08-24T10:26:16.461Z,2958.75
2017-08-24T10:27:16.476Z,3037.50
2017-08-24T10:28:16.485Z,2340.00
2017-08-24T10:29:16.502Z,1541.25
2017-08-24T10:30:16.546Z,1513.13
2017-08-24T10:31:16.601Z,1653.75
2017-08-24T10:32:16.542Z,1732.50
2017-08-24T10:33:16.552Z,1125.00
2017-08-24T10:34:16.566Z,1479.38
2017-08-24T10:35:16.577Z,1490.63
2017-08-24T10:36:16.590Z,1513.13
2017-08-24T10:37:16.602Z,2970.00
2017-08-24T10:38:16.609Z,2013.75
2017-08-24T10:39:16.622Z,1822.50
2017-08-24T10:40:16.629Z,5113.13
2017-08-24T10:41:16.641Z,3262.50
2017-08-24T10:42:16.654Z,3825.00
2017-08-24T10:43:16.664Z,1873.13
2017-08-24T10:44:16.675Z,1490.63
2017-08-24T10:45:16.691Z,1271.25
2017-08-24T10:46:16.700Z,1215.00
2017-08-24T10:47:16.713Z,933.75
2017-08-24T10:48:16.721Z,1063.13
2017-08-24T10:49:16.732Z,1591.88
2017-08-24T10:50:16.742Z,4005.00
2017-08-24T10:51:16.754Z,1243.13
2017-08-24T10:52:16.762Z,1743.75
2017-08-24T10:53:16.768Z,5388.75
2017-08-24T10:54:16.778Z,1867.50
2017-08-24T10:55:16.786Z,3678.75
2017-08-24T10:56:16.798Z,888.75
2017-08-24T10:57:16.808Z,691.88
2017-08-24T10:58:16.814Z,675.00
2017-08-24T10:59:16.829Z,765.00
2017-08-24T11:00:16.833Z,1012.50
2017-08-24T11:01:16.847Z,1029.38
2017-08-24T11:02:16.859Z,1524.38
2017-08-24T11:03:16.865Z,1344.38
2017-08-24T11:04:16.876Z,4055.63
2017-08-24T11:05:16.881Z,4938.75
2017-08-24T11:06:16.896Z,1389.38
2017-08-24T11:07:16.899Z,1265.63
2017-08-24T11:08:16.918Z,1935.00
2017-08-24T11:09:16.912Z,4831.88
2017-08-24T11:10:16.919Z,3611.25
2017-08-24T11:11:16.958Z,4961.25
2017-08-24T11:12:16.940Z,4831.88
2017-08-24T11:13:16.943Z,4916.25
2017-08-24T11:14:16.954Z,4938.75
2017-08-24T11:15:16.961Z,4978.13
2017-08-24T11:16:16.973Z,4685.63
2017-08-24T11:17:16.986Z,4865.63
2017-08-24T11:18:16.994Z,5017.50
2017-08-24T11:19:17.007Z,5006.25
2017-08-24T11:20:17.016Z,4556.25
2017-08-24T11:21:17.028Z,4432.50
2017-08-24T11:22:17.037Z,4747.50
2017-08-24T11:23:17.049Z,4792.50
2017-08-24T11:24:17.059Z,4882.50
2017-08-24T11:25:17.066Z,3043.13
2017-08-24T11:26:17.088Z,1063.13
2017-08-24T11:27:17.089Z,1006.88
2017-08-24T11:28:17.100Z,725.63
2017-08-24T11:29:17.112Z,658.13
2017-08-24T11:30:17.122Z,646.88
2017-08-24T11:31:17.142Z,596.25
2017-08-24T11:32:17.141Z,534.38
2017-08-24T11:33:17.157Z,517.50
2017-08-24T11:34:17.179Z,573.75
2017-08-24T11:35:17.179Z,663.75
2017-08-24T11:36:17.189Z,866.25
2017-08-24T11:37:17.197Z,922.50
2017-08-24T11:38:17.207Z,922.50
2017-08-24T11:39:17.214Z,933.75
2017-08-24T11:40:17.223Z,900.00
2017-08-24T11:41:17.227Z,826.88
2017-08-24T11:42:17.232Z,888.75
2017-08-24T11:43:17.244Z,860.63
2017-08-24T11:44:17.247Z,860.63
2017-08-24T11:45:17.291Z,860.63
2017-08-24T11:46:17.298Z,855.00
2017-08-24T11:47:17.270Z,843.75
2017-08-24T11:48:17.278Z,843.75
2017-08-24T11:49:17.289Z,855.00
2017-08-24T11:50:17.294Z,877.50
2017-08-24T11:51:17.300Z,888.75
2017-08-24T11:52:17.307Z,905.63
2017-08-24T11:53:17.312Z,900.00
2017-08-24T11:54:17.322Z,894.38
2017-08-24T11:55:17.324Z,900.00
2017-08-24T11:56:17.335Z,894.38
2017-08-24T11:57:17.329Z,877.50
2017-08-24T11:58:17.335Z,905.63
2017-08-24T11:59:17.340Z,843.75
2017-08-24T12:00:17.345Z,804.38
2017-08-24T12:01:17.350Z,821.25
2017-08-24T12:02:17.353Z,832.50
2017-08-24T12:03:17.360Z,787.50
2017-08-24T12:04:17.362Z,748.13
2017-08-24T12:05:17.370Z,646.88
2017-08-24T12:06:17.378Z,798.75
2017-08-24T12:07:17.381Z,838.13
2017-08-24T12:08:17.384Z,871.88
2017-08-24T12:09:17.387Z,871.88
2017-08-24T12:10:17.395Z,871.88
2017-08-24T12:11:17.399Z,883.13
2017-08-24T12:12:17.402Z,838.13
2017-08-24T12:13:17.403Z,759.38
2017-08-24T12:14:17.405Z,652.50
2017-08-24T12:15:17.413Z,607.50
2017-08-24T12:16:17.413Z,556.88
2017-08-24T12:17:17.422Z,573.75
2017-08-24T12:18:17.428Z,663.75
2017-08-24T12:19:17.438Z,641.25
2017-08-24T12:20:17.435Z,686.25
2017-08-24T12:21:17.434Z,697.50
2017-08-24T12:22:17.436Z,691.88
2017-08-24T12:23:17.444Z,680.63
2017-08-24T12:24:17.444Z,675.00
2017-08-24T12:25:17.449Z,663.75
2017-08-24T12:26:17.451Z,675.00
2017-08-24T12:27:17.457Z,663.75
2017-08-24T12:28:17.458Z,646.88
2017-08-24T12:29:17.464Z,652.50
2017-08-24T12:30:17.471Z,635.63
2017-08-24T12:31:17.472Z,630.00
2017-08-24T12:32:17.477Z,635.63
2017-08-24T12:33:17.484Z,635.63
2017-08-24T12:34:17.482Z,624.38
2017-08-24T12:35:17.487Z,568.13
2017-08-24T12:36:17.488Z,630.00
2017-08-24T12:37:17.489Z,641.25
2017-08-24T12:38:17.493Z,635.63
2017-08-24T12:39:17.493Z,624.38
2017-08-24T12:40:17.512Z,624.38
2017-08-24T12:41:17.499Z,601.88
2017-08-24T12:42:17.504Z,596.25
2017-08-24T12:43:17.505Z,579.38
2017-08-24T12:44:17.509Z,556.88
2017-08-24T12:45:17.517Z,551.25
2017-08-24T12:46:17.518Z,545.63
2017-08-24T12:47:17.522Z,534.38
2017-08-24T12:48:17.522Z,540.00